sensor_id;sensor_type;location;lat;lon;timestamp;P1;durP1;ratioP1;P2;durP2;ratioP2
37997;SDS011;24079;51.824;4.682;2022-08-07T00:01:03;5.80;;;2.80;;
37997;SDS011;24079;51.824;4.682;2022-08-07T00:03:30;4.43;;;2.58;;
37997;SDS011;24079;51.824;4.682;2022-08-07T00:05:55;3.42;;;2.50;;
37997;SDS011;24079;51.824;4.682;2022-08-07T00:08:21;6.93;;;2.78;;
37997;SDS011;24079;51.824;4.682;2022-08-07T00:10:50;3.95;;;2.53;;
37997;SDS011;24079;51.824;4.682;2022-08-07T00:13:17;6.18;;;2.90;;
37997;SDS011;24079;51.824;4.682;2022-08-07T00:15:43;6.97;;;4.18;;
37997;SDS011;24079;51.824;4.682;2022-08-07T00:18:10;11.05;;;5.53;;
37997;SDS011;24079;51.824;4.682;2022-08-07T00:20:36;9.68;;;5.75;;
37997;SDS011;24079;51.824;4.682;2022-08-07T00:23:03;9.43;;;6.63;;
37997;SDS011;24079;51.824;4.682;2022-08-07T00:25:32;9.75;;;4.35;;
37997;SDS011;24079;51.824;4.682;2022-08-07T00:27:58;5.45;;;3.40;;
37997;SDS011;24079;51.824;4.682;2022-08-07T00:30:24;8.85;;;5.85;;
37997;SDS011;24079;51.824;4.682;2022-08-07T00:32:50;7.10;;;3.72;;
37997;SDS011;24079;51.824;4.682;2022-08-07T00:35:19;5.65;;;3.55;;
37997;SDS011;24079;51.824;4.682;2022-08-07T00:37:45;7.53;;;2.88;;
37997;SDS011;24079;51.824;4.682;2022-08-07T00:40:12;4.95;;;3.33;;
37997;SDS011;24079;51.824;4.682;2022-08-07T00:42:38;3.95;;;2.53;;
37997;SDS011;24079;51.824;4.682;2022-08-07T00:45:05;4.97;;;3.08;;
37997;SDS011;24079;51.824;4.682;2022-08-07T00:47:32;6.10;;;2.60;;
37997;SDS011;24079;51.824;4.682;2022-08-07T00:49:58;5.47;;;2.88;;
37997;SDS011;24079;51.824;4.682;2022-08-07T00:52:24;5.00;;;2.80;;
37997;SDS011;24079;51.824;4.682;2022-08-07T00:54:49;7.25;;;3.08;;
37997;SDS011;24079;51.824;4.682;2022-08-07T00:57:16;6.53;;;2.65;;
37997;SDS011;24079;51.824;4.682;2022-08-07T00:59:42;5.80;;;2.50;;
37997;SDS011;24079;51.824;4.682;2022-08-07T01:02:08;5.20;;;3.15;;
37997;SDS011;24079;51.824;4.682;2022-08-07T01:04:34;4.93;;;3.10;;
37997;SDS011;24079;51.824;4.682;2022-08-07T01:07:00;4.35;;;2.88;;
37997;SDS011;24079;51.824;4.682;2022-08-07T01:09:26;6.68;;;3.10;;
37997;SDS011;24079;51.824;4.682;2022-08-07T01:11:53;6.55;;;3.05;;
37997;SDS011;24079;51.824;4.682;2022-08-07T01:14:19;6.97;;;3.13;;
37997;SDS011;24079;51.824;4.682;2022-08-07T01:16:46;7.18;;;3.13;;
37997;SDS011;24079;51.824;4.682;2022-08-07T01:19:12;6.03;;;2.95;;
37997;SDS011;24079;51.824;4.682;2022-08-07T01:21:39;4.40;;;2.70;;
37997;SDS011;24079;51.824;4.682;2022-08-07T01:24:05;4.50;;;2.97;;
37997;SDS011;24079;51.824;4.682;2022-08-07T01:26:32;6.35;;;3.08;;
37997;SDS011;24079;51.824;4.682;2022-08-07T01:28:58;6.30;;;3.20;;
37997;SDS011;24079;51.824;4.682;2022-08-07T01:31:24;10.90;;;3.50;;
37997;SDS011;24079;51.824;4.682;2022-08-07T01:33:56;9.07;;;3.50;;
37997;SDS011;24079;51.824;4.682;2022-08-07T01:36:23;4.93;;;3.20;;
37997;SDS011;24079;51.824;4.682;2022-08-07T01:38:50;5.82;;;3.25;;
37997;SDS011;24079;51.824;4.682;2022-08-07T01:41:16;6.05;;;3.33;;
37997;SDS011;24079;51.824;4.682;2022-08-07T01:43:44;5.50;;;3.38;;
37997;SDS011;24079;51.824;4.682;2022-08-07T01:46:10;4.97;;;3.35;;
37997;SDS011;24079;51.824;4.682;2022-08-07T01:48:36;4.78;;;3.28;;
37997;SDS011;24079;51.824;4.682;2022-08-07T01:51:06;5.50;;;3.38;;
37997;SDS011;24079;51.824;4.682;2022-08-07T01:53:35;10.52;;;3.78;;
37997;SDS011;24079;51.824;4.682;2022-08-07T01:56:08;5.10;;;3.33;;
37997;SDS011;24079;51.824;4.682;2022-08-07T01:58:44;7.78;;;3.40;;
37997;SDS011;24079;51.824;4.682;2022-08-07T02:01:21;5.20;;;3.75;;
37997;SDS011;24079;51.824;4.682;2022-08-07T02:03:55;6.47;;;3.45;;
37997;SDS011;24079;51.824;4.682;2022-08-07T02:06:29;4.95;;;3.50;;
37997;SDS011;24079;51.824;4.682;2022-08-07T02:08:56;5.50;;;4.28;;
37997;SDS011;24079;51.824;4.682;2022-08-07T02:11:24;5.85;;;3.47;;
37997;SDS011;24079;51.824;4.682;2022-08-07T02:13:50;6.35;;;3.78;;
37997;SDS011;24079;51.824;4.682;2022-08-07T02:16:18;6.97;;;3.90;;
37997;SDS011;24079;51.824;4.682;2022-08-07T02:18:48;7.93;;;4.15;;
37997;SDS011;24079;51.824;4.682;2022-08-07T02:21:14;6.07;;;4.15;;
37997;SDS011;24079;51.824;4.682;2022-08-07T02:23:42;7.53;;;3.85;;
37997;SDS011;24079;51.824;4.682;2022-08-07T02:26:08;7.30;;;4.25;;
37997;SDS011;24079;51.824;4.682;2022-08-07T02:28:35;8.27;;;4.28;;
37997;SDS011;24079;51.824;4.682;2022-08-07T02:31:02;8.70;;;4.53;;
37997;SDS011;24079;51.824;4.682;2022-08-07T02:33:30;6.90;;;4.20;;
37997;SDS011;24079;51.824;4.682;2022-08-07T02:35:57;6.10;;;4.20;;
37997;SDS011;24079;51.824;4.682;2022-08-07T02:38:26;6.72;;;4.13;;
37997;SDS011;24079;51.824;4.682;2022-08-07T02:40:53;8.85;;;4.55;;
37997;SDS011;24079;51.824;4.682;2022-08-07T02:43:20;6.57;;;4.07;;
37997;SDS011;24079;51.824;4.682;2022-08-07T02:45:47;5.63;;;4.00;;
37997;SDS011;24079;51.824;4.682;2022-08-07T02:48:15;6.07;;;3.88;;
37997;SDS011;24079;51.824;4.682;2022-08-07T02:50:42;5.43;;;3.60;;
37997;SDS011;24079;51.824;4.682;2022-08-07T02:53:11;8.77;;;4.18;;
37997;SDS011;24079;51.824;4.682;2022-08-07T02:55:43;9.02;;;3.60;;
37997;SDS011;24079;51.824;4.682;2022-08-07T02:58:12;5.85;;;4.18;;
37997;SDS011;24079;51.824;4.682;2022-08-07T03:00:41;8.73;;;3.80;;
37997;SDS011;24079;51.824;4.682;2022-08-07T03:03:08;5.30;;;4.10;;
37997;SDS011;24079;51.824;4.682;2022-08-07T03:05:35;8.70;;;3.58;;
37997;SDS011;24079;51.824;4.682;2022-08-07T03:08:05;7.75;;;4.07;;
37997;SDS011;24079;51.824;4.682;2022-08-07T03:10:32;5.75;;;3.58;;
37997;SDS011;24079;51.824;4.682;2022-08-07T03:12:58;6.95;;;3.80;;
37997;SDS011;24079;51.824;4.682;2022-08-07T03:15:25;8.20;;;4.18;;
37997;SDS011;24079;51.824;4.682;2022-08-07T03:17:52;7.53;;;4.43;;
37997;SDS011;24079;51.824;4.682;2022-08-07T03:20:18;8.15;;;4.60;;
37997;SDS011;24079;51.824;4.682;2022-08-07T03:22:44;7.22;;;4.60;;
37997;SDS011;24079;51.824;4.682;2022-08-07T03:25:11;9.98;;;5.03;;
37997;SDS011;24079;51.824;4.682;2022-08-07T03:27:38;8.02;;;4.78;;
37997;SDS011;24079;51.824;4.682;2022-08-07T03:30:06;10.38;;;4.90;;
37997;SDS011;24079;51.824;4.682;2022-08-07T03:32:33;8.05;;;5.03;;
37997;SDS011;24079;51.824;4.682;2022-08-07T03:35:05;9.18;;;5.40;;
37997;SDS011;24079;51.824;4.682;2022-08-07T03:37:35;6.80;;;5.07;;
37997;SDS011;24079;51.824;4.682;2022-08-07T03:40:02;7.45;;;5.70;;
37997;SDS011;24079;51.824;4.682;2022-08-07T03:42:28;8.80;;;5.50;;
37997;SDS011;24079;51.824;4.682;2022-08-07T03:44:57;7.40;;;5.28;;
37997;SDS011;24079;51.824;4.682;2022-08-07T03:47:23;7.93;;;5.40;;
37997;SDS011;24079;51.824;4.682;2022-08-07T03:49:50;9.80;;;5.18;;
37997;SDS011;24079;51.824;4.682;2022-08-07T03:52:16;6.68;;;5.10;;
37997;SDS011;24079;51.824;4.682;2022-08-07T03:54:43;8.88;;;5.88;;
37997;SDS011;24079;51.824;4.682;2022-08-07T03:57:09;11.70;;;6.30;;
37997;SDS011;24079;51.824;4.682;2022-08-07T03:59:36;9.98;;;6.15;;
37997;SDS011;24079;51.824;4.682;2022-08-07T04:02:03;8.43;;;6.03;;
37997;SDS011;24079;51.824;4.682;2022-08-07T04:04:29;9.75;;;6.88;;
37997;SDS011;24079;51.824;4.682;2022-08-07T04:06:55;12.50;;;6.38;;
37997;SDS011;24079;51.824;4.682;2022-08-07T04:09:21;14.60;;;7.28;;
37997;SDS011;24079;51.824;4.682;2022-08-07T04:11:48;8.60;;;6.15;;
37997;SDS011;24079;51.824;4.682;2022-08-07T04:14:15;8.82;;;6.70;;
37997;SDS011;24079;51.824;4.682;2022-08-07T04:16:41;8.30;;;6.22;;
37997;SDS011;24079;51.824;4.682;2022-08-07T04:19:07;10.82;;;7.03;;
37997;SDS011;24079;51.824;4.682;2022-08-07T04:21:33;11.02;;;6.30;;
37997;SDS011;24079;51.824;4.682;2022-08-07T04:23:59;11.90;;;6.45;;
37997;SDS011;24079;51.824;4.682;2022-08-07T04:26:27;8.40;;;5.85;;
37997;SDS011;24079;51.824;4.682;2022-08-07T04:28:52;10.55;;;6.68;;
37997;SDS011;24079;51.824;4.682;2022-08-07T04:31:18;9.82;;;6.22;;
37997;SDS011;24079;51.824;4.682;2022-08-07T04:33:48;9.35;;;6.35;;
37997;SDS011;24079;51.824;4.682;2022-08-07T04:36:14;9.55;;;6.65;;
37997;SDS011;24079;51.824;4.682;2022-08-07T04:38:40;11.30;;;6.80;;
37997;SDS011;24079;51.824;4.682;2022-08-07T04:41:05;8.93;;;6.22;;
37997;SDS011;24079;51.824;4.682;2022-08-07T04:43:40;10.68;;;6.43;;
37997;SDS011;24079;51.824;4.682;2022-08-07T04:48:46;8.63;;;6.28;;
37997;SDS011;24079;51.824;4.682;2022-08-07T04:54:00;12.73;;;6.47;;
37997;SDS011;24079;51.824;4.682;2022-08-07T04:56:36;8.90;;;6.53;;
37997;SDS011;24079;51.824;4.682;2022-08-07T04:59:15;9.13;;;6.28;;
37997;SDS011;24079;51.824;4.682;2022-08-07T05:02:00;9.98;;;6.53;;
37997;SDS011;24079;51.824;4.682;2022-08-07T05:04:39;9.75;;;6.35;;
37997;SDS011;24079;51.824;4.682;2022-08-07T05:07:18;10.05;;;6.68;;
37997;SDS011;24079;51.824;4.682;2022-08-07T05:09:59;9.60;;;6.70;;
37997;SDS011;24079;51.824;4.682;2022-08-07T05:12:37;9.88;;;6.78;;
37997;SDS011;24079;51.824;4.682;2022-08-07T05:15:13;9.77;;;6.82;;
37997;SDS011;24079;51.824;4.682;2022-08-07T05:17:44;8.57;;;6.40;;
37997;SDS011;24079;51.824;4.682;2022-08-07T05:20:12;11.43;;;6.72;;
37997;SDS011;24079;51.824;4.682;2022-08-07T05:22:48;10.60;;;6.28;;
37997;SDS011;24079;51.824;4.682;2022-08-07T05:25:16;7.78;;;5.55;;
37997;SDS011;24079;51.824;4.682;2022-08-07T05:27:45;9.48;;;5.53;;
37997;SDS011;24079;51.824;4.682;2022-08-07T05:30:11;11.38;;;6.25;;
37997;SDS011;24079;51.824;4.682;2022-08-07T05:32:38;10.13;;;6.22;;
37997;SDS011;24079;51.824;4.682;2022-08-07T05:35:05;9.82;;;6.32;;
37997;SDS011;24079;51.824;4.682;2022-08-07T05:37:34;9.38;;;6.38;;
37997;SDS011;24079;51.824;4.682;2022-08-07T05:40:00;9.93;;;5.72;;
37997;SDS011;24079;51.824;4.682;2022-08-07T05:42:26;10.00;;;6.25;;
37997;SDS011;24079;51.824;4.682;2022-08-07T05:44:52;9.18;;;5.78;;
37997;SDS011;24079;51.824;4.682;2022-08-07T05:47:19;8.18;;;5.18;;
37997;SDS011;24079;51.824;4.682;2022-08-07T05:49:48;10.10;;;6.10;;
37997;SDS011;24079;51.824;4.682;2022-08-07T05:52:16;9.52;;;6.10;;
37997;SDS011;24079;51.824;4.682;2022-08-07T05:54:43;11.43;;;6.07;;
37997;SDS011;24079;51.824;4.682;2022-08-07T05:57:09;7.60;;;5.30;;
37997;SDS011;24079;51.824;4.682;2022-08-07T05:59:36;7.80;;;5.55;;
37997;SDS011;24079;51.824;4.682;2022-08-07T06:02:04;6.50;;;4.80;;
37997;SDS011;24079;51.824;4.682;2022-08-07T06:04:33;6.88;;;5.03;;
37997;SDS011;24079;51.824;4.682;2022-08-07T06:07:01;7.03;;;4.53;;
37997;SDS011;24079;51.824;4.682;2022-08-07T06:09:30;7.50;;;5.05;;
37997;SDS011;24079;51.824;4.682;2022-08-07T06:11:56;6.55;;;4.70;;
37997;SDS011;24079;51.824;4.682;2022-08-07T06:14:22;7.40;;;4.72;;
37997;SDS011;24079;51.824;4.682;2022-08-07T06:16:48;6.07;;;3.95;;
37997;SDS011;24079;51.824;4.682;2022-08-07T06:19:16;7.30;;;4.50;;
37997;SDS011;24079;51.824;4.682;2022-08-07T06:21:44;6.82;;;4.78;;
37997;SDS011;24079;51.824;4.682;2022-08-07T06:24:10;7.35;;;4.80;;
37997;SDS011;24079;51.824;4.682;2022-08-07T06:26:40;6.45;;;4.25;;
37997;SDS011;24079;51.824;4.682;2022-08-07T06:29:06;5.10;;;4.35;;
37997;SDS011;24079;51.824;4.682;2022-08-07T06:31:33;5.32;;;4.28;;
37997;SDS011;24079;51.824;4.682;2022-08-07T06:33:59;5.75;;;4.15;;
37997;SDS011;24079;51.824;4.682;2022-08-07T06:36:25;9.65;;;4.80;;
37997;SDS011;24079;51.824;4.682;2022-08-07T06:38:51;9.30;;;5.50;;
37997;SDS011;24079;51.824;4.682;2022-08-07T06:41:25;10.13;;;5.32;;
37997;SDS011;24079;51.824;4.682;2022-08-07T06:44:00;8.35;;;5.50;;
37997;SDS011;24079;51.824;4.682;2022-08-07T06:46:27;8.15;;;5.63;;
37997;SDS011;24079;51.824;4.682;2022-08-07T06:48:53;10.85;;;5.97;;
37997;SDS011;24079;51.824;4.682;2022-08-07T06:51:20;7.53;;;5.20;;
37997;SDS011;24079;51.824;4.682;2022-08-07T06:53:53;9.07;;;5.43;;
37997;SDS011;24079;51.824;4.682;2022-08-07T06:56:21;5.55;;;4.93;;
37997;SDS011;24079;51.824;4.682;2022-08-07T06:59:06;10.43;;;5.85;;
37997;SDS011;24079;51.824;4.682;2022-08-07T07:01:34;8.27;;;6.77;;
37997;SDS011;24079;51.824;4.682;2022-08-07T07:04:02;8.38;;;6.25;;
37997;SDS011;24079;51.824;4.682;2022-08-07T07:06:29;9.00;;;6.03;;
37997;SDS011;24079;51.824;4.682;2022-08-07T07:11:57;7.75;;;6.38;;
37997;SDS011;24079;51.824;4.682;2022-08-07T07:14:28;8.88;;;5.30;;
37997;SDS011;24079;51.824;4.682;2022-08-07T07:16:59;10.35;;;4.85;;
37997;SDS011;24079;51.824;4.682;2022-08-07T07:19:29;7.32;;;5.25;;
37997;SDS011;24079;51.824;4.682;2022-08-07T07:21:58;8.43;;;4.63;;
37997;SDS011;24079;51.824;4.682;2022-08-07T07:24:24;4.75;;;3.53;;
37997;SDS011;24079;51.824;4.682;2022-08-07T07:26:50;5.82;;;4.18;;
37997;SDS011;24079;51.824;4.682;2022-08-07T07:29:20;7.15;;;4.80;;
37997;SDS011;24079;51.824;4.682;2022-08-07T07:31:50;7.55;;;5.47;;
37997;SDS011;24079;51.824;4.682;2022-08-07T07:34:21;8.57;;;5.50;;
37997;SDS011;24079;51.824;4.682;2022-08-07T07:36:51;7.32;;;4.97;;
37997;SDS011;24079;51.824;4.682;2022-08-07T07:39:18;6.13;;;3.40;;
37997;SDS011;24079;51.824;4.682;2022-08-07T07:41:46;7.72;;;2.47;;
37997;SDS011;24079;51.824;4.682;2022-08-07T07:44:15;7.60;;;3.65;;
37997;SDS011;24079;51.824;4.682;2022-08-07T07:46:42;7.72;;;4.80;;
37997;SDS011;24079;51.824;4.682;2022-08-07T07:49:09;6.28;;;3.75;;
37997;SDS011;24079;51.824;4.682;2022-08-07T07:51:38;6.50;;;4.30;;
37997;SDS011;24079;51.824;4.682;2022-08-07T07:54:05;7.30;;;4.05;;
37997;SDS011;24079;51.824;4.682;2022-08-07T07:56:31;7.68;;;4.63;;
37997;SDS011;24079;51.824;4.682;2022-08-07T07:58:59;5.97;;;2.70;;
37997;SDS011;24079;51.824;4.682;2022-08-07T08:01:26;5.78;;;2.90;;
37997;SDS011;24079;51.824;4.682;2022-08-07T08:03:54;7.65;;;2.95;;
37997;SDS011;24079;51.824;4.682;2022-08-07T08:06:21;7.00;;;3.38;;
37997;SDS011;24079;51.824;4.682;2022-08-07T08:08:49;4.85;;;2.80;;
37997;SDS011;24079;51.824;4.682;2022-08-07T08:11:16;6.15;;;2.75;;
37997;SDS011;24079;51.824;4.682;2022-08-07T08:13:43;2.45;;;2.05;;
37997;SDS011;24079;51.824;4.682;2022-08-07T08:16:11;5.40;;;2.83;;
37997;SDS011;24079;51.824;4.682;2022-08-07T08:18:41;6.07;;;2.30;;
37997;SDS011;24079;51.824;4.682;2022-08-07T08:21:07;4.93;;;2.00;;
37997;SDS011;24079;51.824;4.682;2022-08-07T08:23:54;4.28;;;2.20;;
37997;SDS011;24079;51.824;4.682;2022-08-07T08:26:39;3.40;;;2.58;;
37997;SDS011;24079;51.824;4.682;2022-08-07T08:29:24;5.03;;;3.08;;
37997;SDS011;24079;51.824;4.682;2022-08-07T08:31:52;3.72;;;2.72;;
37997;SDS011;24079;51.824;4.682;2022-08-07T08:34:19;3.72;;;2.80;;
37997;SDS011;24079;51.824;4.682;2022-08-07T08:36:47;7.75;;;2.70;;
37997;SDS011;24079;51.824;4.682;2022-08-07T08:39:14;6.57;;;3.00;;
37997;SDS011;24079;51.824;4.682;2022-08-07T08:41:58;3.08;;;2.33;;
37997;SDS011;24079;51.824;4.682;2022-08-07T08:47:06;4.88;;;2.88;;
37997;SDS011;24079;51.824;4.682;2022-08-07T08:52:18;5.00;;;2.50;;
37997;SDS011;24079;51.824;4.682;2022-08-07T08:54:53;4.50;;;2.20;;
37997;SDS011;24079;51.824;4.682;2022-08-07T09:00:09;4.35;;;2.30;;
37997;SDS011;24079;51.824;4.682;2022-08-07T09:05:14;3.45;;;2.80;;
37997;SDS011;24079;51.824;4.682;2022-08-07T09:08:16;4.90;;;2.60;;
37997;SDS011;24079;51.824;4.682;2022-08-07T09:10:56;5.05;;;2.72;;
37997;SDS011;24079;51.824;4.682;2022-08-07T09:16:06;5.50;;;2.78;;
37997;SDS011;24079;51.824;4.682;2022-08-07T09:34:56;3.33;;;2.58;;
37997;SDS011;24079;51.824;4.682;2022-08-07T09:40:00;3.15;;;2.30;;
37997;SDS011;24079;51.824;4.682;2022-08-07T09:42:39;4.00;;;2.33;;
37997;SDS011;24079;51.824;4.682;2022-08-07T09:45:16;3.58;;;2.60;;
37997;SDS011;24079;51.824;4.682;2022-08-07T09:53:23;5.97;;;2.33;;
37997;SDS011;24079;51.824;4.682;2022-08-07T09:58:55;2.17;;;1.65;;
37997;SDS011;24079;51.824;4.682;2022-08-07T10:07:24;2.33;;;1.60;;
37997;SDS011;24079;51.824;4.682;2022-08-07T10:19:18;3.78;;;2.40;;
37997;SDS011;24079;51.824;4.682;2022-08-07T10:22:21;4.97;;;2.10;;
37997;SDS011;24079;51.824;4.682;2022-08-07T10:25:07;4.97;;;2.10;;
37997;SDS011;24079;51.824;4.682;2022-08-07T10:30:52;2.95;;;2.08;;
37997;SDS011;24079;51.824;4.682;2022-08-07T10:39:03;4.13;;;2.47;;
37997;SDS011;24079;51.824;4.682;2022-08-07T10:41:50;2.97;;;1.90;;
37997;SDS011;24079;51.824;4.682;2022-08-07T10:44:33;3.72;;;2.15;;
37997;SDS011;24079;51.824;4.682;2022-08-07T10:50:20;5.15;;;2.80;;
37997;SDS011;24079;51.824;4.682;2022-08-07T10:55:17;3.05;;;2.20;;
37997;SDS011;24079;51.824;4.682;2022-08-07T11:00:48;5.70;;;2.67;;
37997;SDS011;24079;51.824;4.682;2022-08-07T11:03:22;5.43;;;2.30;;
37997;SDS011;24079;51.824;4.682;2022-08-07T11:06:18;4.10;;;2.60;;
37997;SDS011;24079;51.824;4.682;2022-08-07T11:08:59;3.25;;;2.38;;
37997;SDS011;24079;51.824;4.682;2022-08-07T11:11:32;3.70;;;2.80;;
37997;SDS011;24079;51.824;4.682;2022-08-07T11:14:06;3.35;;;2.72;;
37997;SDS011;24079;51.824;4.682;2022-08-07T11:16:44;4.50;;;3.05;;
37997;SDS011;24079;51.824;4.682;2022-08-07T11:19:19;3.67;;;2.53;;
37997;SDS011;24079;51.824;4.682;2022-08-07T11:22:09;3.27;;;2.47;;
37997;SDS011;24079;51.824;4.682;2022-08-07T11:24:50;5.10;;;2.80;;
37997;SDS011;24079;51.824;4.682;2022-08-07T11:27:39;5.60;;;2.35;;
37997;SDS011;24079;51.824;4.682;2022-08-07T11:30:14;3.30;;;2.30;;
37997;SDS011;24079;51.824;4.682;2022-08-07T11:35:22;4.15;;;2.10;;
37997;SDS011;24079;51.824;4.682;2022-08-07T11:40:48;3.30;;;2.17;;
37997;SDS011;24079;51.824;4.682;2022-08-07T11:44:08;4.13;;;2.17;;
37997;SDS011;24079;51.824;4.682;2022-08-07T11:46:47;4.90;;;2.05;;
37997;SDS011;24079;51.824;4.682;2022-08-07T11:51:58;5.03;;;2.58;;
37997;SDS011;24079;51.824;4.682;2022-08-07T11:57:21;6.88;;;2.53;;
37997;SDS011;24079;51.824;4.682;2022-08-07T11:59:59;5.18;;;2.53;;
37997;SDS011;24079;51.824;4.682;2022-08-07T12:02:35;2.25;;;1.80;;
37997;SDS011;24079;51.824;4.682;2022-08-07T12:08:08;4.10;;;1.95;;
37997;SDS011;24079;51.824;4.682;2022-08-07T12:10:41;4.15;;;1.77;;
37997;SDS011;24079;51.824;4.682;2022-08-07T12:13:39;2.95;;;1.92;;
37997;SDS011;24079;51.824;4.682;2022-08-07T12:16:21;7.28;;;1.83;;
37997;SDS011;24079;51.824;4.682;2022-08-07T12:18:54;3.55;;;1.73;;
37997;SDS011;24079;51.824;4.682;2022-08-07T12:21:34;4.57;;;2.00;;
37997;SDS011;24079;51.824;4.682;2022-08-07T12:24:07;2.42;;;1.63;;
37997;SDS011;24079;51.824;4.682;2022-08-07T12:29:33;3.00;;;1.50;;
37997;SDS011;24079;51.824;4.682;2022-08-07T12:32:20;2.83;;;1.67;;
37997;SDS011;24079;51.824;4.682;2022-08-07T12:34:52;4.47;;;1.42;;
37997;SDS011;24079;51.824;4.682;2022-08-07T12:37:18;2.28;;;1.50;;
37997;SDS011;24079;51.824;4.682;2022-08-07T12:39:46;3.17;;;1.80;;
37997;SDS011;24079;51.824;4.682;2022-08-07T12:42:17;2.20;;;1.67;;
37997;SDS011;24079;51.824;4.682;2022-08-07T12:44:46;2.38;;;1.70;;
37997;SDS011;24079;51.824;4.682;2022-08-07T12:47:20;2.50;;;1.40;;
37997;SDS011;24079;51.824;4.682;2022-08-07T12:52:56;3.03;;;1.98;;
37997;SDS011;24079;51.824;4.682;2022-08-07T12:55:34;3.85;;;1.60;;
37997;SDS011;24079;51.824;4.682;2022-08-07T12:58:04;2.90;;;1.40;;
37997;SDS011;24079;51.824;4.682;2022-08-07T13:00:59;4.35;;;2.03;;
37997;SDS011;24079;51.824;4.682;2022-08-07T13:11:36;3.95;;;2.50;;
37997;SDS011;24079;51.824;4.682;2022-08-07T13:17:09;6.18;;;2.80;;
37997;SDS011;24079;51.824;4.682;2022-08-07T13:19:59;5.90;;;2.50;;
37997;SDS011;24079;51.824;4.682;2022-08-07T13:22:35;4.20;;;2.58;;
37997;SDS011;24079;51.824;4.682;2022-08-07T13:25:29;3.50;;;2.03;;
37997;SDS011;24079;51.824;4.682;2022-08-07T13:28:04;7.50;;;2.38;;
37997;SDS011;24079;51.824;4.682;2022-08-07T13:30:34;4.95;;;2.08;;
37997;SDS011;24079;51.824;4.682;2022-08-07T13:33:10;4.85;;;2.15;;
37997;SDS011;24079;51.824;4.682;2022-08-07T13:36:02;6.28;;;1.92;;
37997;SDS011;24079;51.824;4.682;2022-08-07T13:38:38;6.80;;;2.20;;
37997;SDS011;24079;51.824;4.682;2022-08-07T13:44:08;3.25;;;1.92;;
37997;SDS011;24079;51.824;4.682;2022-08-07T13:46:37;4.65;;;2.03;;
37997;SDS011;24079;51.824;4.682;2022-08-07T13:49:09;2.78;;;1.65;;
37997;SDS011;24079;51.824;4.682;2022-08-07T13:51:37;5.10;;;1.80;;
37997;SDS011;24079;51.824;4.682;2022-08-07T13:54:07;2.92;;;1.60;;
37997;SDS011;24079;51.824;4.682;2022-08-07T13:56:38;2.92;;;1.70;;
37997;SDS011;24079;51.824;4.682;2022-08-07T13:59:41;7.28;;;2.00;;
37997;SDS011;24079;51.824;4.682;2022-08-07T14:01:58;3.15;;;1.80;;
37997;SDS011;24079;51.824;4.682;2022-08-07T14:04:35;4.75;;;1.95;;
37997;SDS011;24079;51.824;4.682;2022-08-07T14:07:08;3.05;;;1.50;;
37997;SDS011;24079;51.824;4.682;2022-08-07T14:09:37;3.05;;;1.50;;
37997;SDS011;24079;51.824;4.682;2022-08-07T14:12:05;3.40;;;1.80;;
37997;SDS011;24079;51.824;4.682;2022-08-07T14:14:39;4.20;;;1.98;;
37997;SDS011;24079;51.824;4.682;2022-08-07T14:17:10;2.95;;;1.70;;
37997;SDS011;24079;51.824;4.682;2022-08-07T14:19:47;3.30;;;1.63;;
37997;SDS011;24079;51.824;4.682;2022-08-07T14:22:21;2.85;;;1.70;;
37997;SDS011;24079;51.824;4.682;2022-08-07T14:24:52;3.28;;;1.60;;
37997;SDS011;24079;51.824;4.682;2022-08-07T14:27:33;2.60;;;1.48;;
37997;SDS011;24079;51.824;4.682;2022-08-07T14:30:11;3.97;;;1.52;;
37997;SDS011;24079;51.824;4.682;2022-08-07T14:32:39;2.67;;;1.40;;
37997;SDS011;24079;51.824;4.682;2022-08-07T14:35:20;2.83;;;1.27;;
37997;SDS011;24079;51.824;4.682;2022-08-07T14:37:48;3.33;;;1.63;;
37997;SDS011;24079;51.824;4.682;2022-08-07T14:40:17;4.55;;;2.10;;
37997;SDS011;24079;51.824;4.682;2022-08-07T14:42:50;7.15;;;1.77;;
37997;SDS011;24079;51.824;4.682;2022-08-07T14:45:29;2.97;;;1.73;;
37997;SDS011;24079;51.824;4.682;2022-08-07T14:47:59;3.83;;;1.73;;
37997;SDS011;24079;51.824;4.682;2022-08-07T14:50:27;3.33;;;1.77;;
37997;SDS011;24079;51.824;4.682;2022-08-07T14:52:53;8.40;;;1.90;;
37997;SDS011;24079;51.824;4.682;2022-08-07T14:55:20;3.03;;;1.90;;
37997;SDS011;24079;51.824;4.682;2022-08-07T14:57:51;4.30;;;1.90;;
37997;SDS011;24079;51.824;4.682;2022-08-07T15:00:17;5.32;;;2.00;;
37997;SDS011;24079;51.824;4.682;2022-08-07T15:02:50;4.85;;;1.88;;
37997;SDS011;24079;51.824;4.682;2022-08-07T15:05:17;5.75;;;1.70;;
37997;SDS011;24079;51.824;4.682;2022-08-07T15:07:45;5.07;;;1.80;;
37997;SDS011;24079;51.824;4.682;2022-08-07T15:10:16;3.17;;;1.60;;
37997;SDS011;24079;51.824;4.682;2022-08-07T15:12:50;3.70;;;2.03;;
37997;SDS011;24079;51.824;4.682;2022-08-07T15:15:22;4.35;;;1.88;;
37997;SDS011;24079;51.824;4.682;2022-08-07T15:17:55;5.07;;;1.70;;
37997;SDS011;24079;51.824;4.682;2022-08-07T15:20:25;9.38;;;4.65;;
37997;SDS011;24079;51.824;4.682;2022-08-07T15:22:54;5.60;;;2.67;;
37997;SDS011;24079;51.824;4.682;2022-08-07T15:25:23;5.63;;;1.67;;
37997;SDS011;24079;51.824;4.682;2022-08-07T15:27:56;4.47;;;1.90;;
37997;SDS011;24079;51.824;4.682;2022-08-07T15:30:25;4.70;;;1.90;;
37997;SDS011;24079;51.824;4.682;2022-08-07T15:32:52;5.78;;;2.17;;
37997;SDS011;24079;51.824;4.682;2022-08-07T15:35:19;5.45;;;2.60;;
37997;SDS011;24079;51.824;4.682;2022-08-07T15:37:50;5.75;;;3.08;;
37997;SDS011;24079;51.824;4.682;2022-08-07T15:40:20;6.10;;;3.25;;
37997;SDS011;24079;51.824;4.682;2022-08-07T15:42:53;3.38;;;1.70;;
37997;SDS011;24079;51.824;4.682;2022-08-07T15:48:29;20.52;;;8.07;;
37997;SDS011;24079;51.824;4.682;2022-08-07T15:50:51;15.27;;;6.15;;
37997;SDS011;24079;51.824;4.682;2022-08-07T15:55:51;5.32;;;1.73;;
37997;SDS011;24079;51.824;4.682;2022-08-07T15:58:20;3.72;;;1.63;;
37997;SDS011;24079;51.824;4.682;2022-08-07T16:01:01;7.68;;;2.15;;
37997;SDS011;24079;51.824;4.682;2022-08-07T16:03:30;6.63;;;2.15;;
37997;SDS011;24079;51.824;4.682;2022-08-07T16:06:01;8.13;;;4.68;;
37997;SDS011;24079;51.824;4.682;2022-08-07T16:08:28;9.65;;;4.18;;
37997;SDS011;24079;51.824;4.682;2022-08-07T16:10:59;4.90;;;2.10;;
37997;SDS011;24079;51.824;4.682;2022-08-07T16:16:24;6.35;;;1.80;;
37997;SDS011;24079;51.824;4.682;2022-08-07T16:21:46;3.50;;;1.60;;
37997;SDS011;24079;51.824;4.682;2022-08-07T16:32:27;4.80;;;2.08;;
37997;SDS011;24079;51.824;4.682;2022-08-07T16:35:06;4.55;;;2.05;;
37997;SDS011;24079;51.824;4.682;2022-08-07T16:37:56;4.78;;;2.08;;
37997;SDS011;24079;51.824;4.682;2022-08-07T16:40:49;4.05;;;2.03;;
37997;SDS011;24079;51.824;4.682;2022-08-07T16:46:44;7.15;;;3.25;;
37997;SDS011;24079;51.824;4.682;2022-08-07T16:57:30;5.00;;;1.98;;
37997;SDS011;24079;51.824;4.682;2022-08-07T17:00:16;4.53;;;2.30;;
37997;SDS011;24079;51.824;4.682;2022-08-07T17:11:07;9.20;;;3.10;;
37997;SDS011;24079;51.824;4.682;2022-08-07T17:13:38;6.63;;;3.08;;
37997;SDS011;24079;51.824;4.682;2022-08-07T17:16:25;11.25;;;6.70;;
37997;SDS011;24079;51.824;4.682;2022-08-07T17:19:06;11.02;;;6.13;;
37997;SDS011;24079;51.824;4.682;2022-08-07T17:21:44;8.95;;;4.13;;
37997;SDS011;24079;51.824;4.682;2022-08-07T17:24:18;10.05;;;2.65;;
37997;SDS011;24079;51.824;4.682;2022-08-07T17:26:50;5.85;;;2.60;;
37997;SDS011;24079;51.824;4.682;2022-08-07T17:29:35;7.45;;;2.17;;
37997;SDS011;24079;51.824;4.682;2022-08-07T17:35:11;12.75;;;4.43;;
37997;SDS011;24079;51.824;4.682;2022-08-07T17:37:54;5.75;;;2.90;;
37997;SDS011;24079;51.824;4.682;2022-08-07T17:43:05;7.00;;;3.13;;
37997;SDS011;24079;51.824;4.682;2022-08-07T17:46:08;6.57;;;2.55;;
37997;SDS011;24079;51.824;4.682;2022-08-07T17:49:23;8.77;;;2.97;;
37997;SDS011;24079;51.824;4.682;2022-08-07T17:51:38;5.88;;;3.05;;